sensor_id;sensor_type;location;lat;lon;timestamp;P1;durP1;ratioP1;P2;durP2;ratioP2
37241;SDS011;23135;51.078;12.108;2022-10-22T00:02:12;2.17;;;1.40;;
37241;SDS011;23135;51.078;12.108;2022-10-22T00:04:43;5.13;;;1.23;;
37241;SDS011;23135;51.078;12.108;2022-10-22T00:07:10;4.70;;;1.67;;
37241;SDS011;23135;51.078;12.108;2022-10-22T00:09:35;3.72;;;0.90;;
37241;SDS011;23135;51.078;12.108;2022-10-22T00:12:01;2.03;;;1.17;;
37241;SDS011;23135;51.078;12.108;2022-10-22T00:14:26;2.10;;;0.65;;
37241;SDS011;23135;51.078;12.108;2022-10-22T00:16:52;5.78;;;1.50;;
37241;SDS011;23135;51.078;12.108;2022-10-22T00:19:18;4.78;;;1.70;;
37241;SDS011;23135;51.078;12.108;2022-10-22T00:21:43;6.30;;;1.02;;
37241;SDS011;23135;51.078;12.108;2022-10-22T00:24:09;3.50;;;0.82;;
37241;SDS011;23135;51.078;12.108;2022-10-22T00:26:34;2.75;;;0.93;;
37241;SDS011;23135;51.078;12.108;2022-10-22T00:29:00;5.20;;;1.13;;
37241;SDS011;23135;51.078;12.108;2022-10-22T00:31:26;3.40;;;1.30;;
37241;SDS011;23135;51.078;12.108;2022-10-22T00:33:51;4.85;;;1.77;;
37241;SDS011;23135;51.078;12.108;2022-10-22T00:36:17;1.52;;;1.40;;
37241;SDS011;23135;51.078;12.108;2022-10-22T00:38:43;2.20;;;1.52;;
37241;SDS011;23135;51.078;12.108;2022-10-22T00:41:08;2.65;;;1.35;;
37241;SDS011;23135;51.078;12.108;2022-10-22T00:43:51;5.47;;;1.42;;
37241;SDS011;23135;51.078;12.108;2022-10-22T00:46:23;7.65;;;1.63;;
37241;SDS011;23135;51.078;12.108;2022-10-22T00:48:49;4.60;;;2.13;;
37241;SDS011;23135;51.078;12.108;2022-10-22T00:51:16;6.47;;;2.50;;
37241;SDS011;23135;51.078;12.108;2022-10-22T00:53:44;10.93;;;1.45;;
37241;SDS011;23135;51.078;12.108;2022-10-22T00:56:13;2.95;;;1.30;;
37241;SDS011;23135;51.078;12.108;2022-10-22T00:58:44;7.60;;;2.35;;
37241;SDS011;23135;51.078;12.108;2022-10-22T01:01:13;2.90;;;1.35;;
37241;SDS011;23135;51.078;12.108;2022-10-22T01:03:43;4.10;;;1.95;;
37241;SDS011;23135;51.078;12.108;2022-10-22T01:06:10;8.57;;;2.35;;
37241;SDS011;23135;51.078;12.108;2022-10-22T01:11:31;8.02;;;3.13;;
37241;SDS011;23135;51.078;12.108;2022-10-22T01:21:58;6.00;;;2.75;;
37241;SDS011;23135;51.078;12.108;2022-10-22T01:25:16;4.38;;;2.78;;
37241;SDS011;23135;51.078;12.108;2022-10-22T01:32:25;17.58;;;2.65;;
37241;SDS011;23135;51.078;12.108;2022-10-22T01:35:01;4.88;;;2.55;;
37241;SDS011;23135;51.078;12.108;2022-10-22T01:37:31;5.00;;;2.90;;
37241;SDS011;23135;51.078;12.108;2022-10-22T01:40:01;8.95;;;3.35;;
37241;SDS011;23135;51.078;12.108;2022-10-22T01:42:27;8.75;;;2.42;;
37241;SDS011;23135;51.078;12.108;2022-10-22T01:44:53;7.43;;;2.88;;
37241;SDS011;23135;51.078;12.108;2022-10-22T01:47:25;8.52;;;3.28;;
37241;SDS011;23135;51.078;12.108;2022-10-22T01:52:49;9.07;;;3.83;;
37241;SDS011;23135;51.078;12.108;2022-10-22T01:59:11;9.73;;;3.63;;
37241;SDS011;23135;51.078;12.108;2022-10-22T02:01:25;11.60;;;2.30;;
37241;SDS011;23135;51.078;12.108;2022-10-22T02:03:58;8.25;;;2.72;;
37241;SDS011;23135;51.078;12.108;2022-10-22T02:06:30;7.28;;;3.25;;
37241;SDS011;23135;51.078;12.108;2022-10-22T02:08:57;8.40;;;3.00;;
37241;SDS011;23135;51.078;12.108;2022-10-22T02:11:25;11.77;;;3.40;;
37241;SDS011;23135;51.078;12.108;2022-10-22T02:13:52;9.25;;;3.05;;
37241;SDS011;23135;51.078;12.108;2022-10-22T02:18:58;9.27;;;2.88;;
37241;SDS011;23135;51.078;12.108;2022-10-22T02:21:28;5.82;;;4.10;;
37241;SDS011;23135;51.078;12.108;2022-10-22T02:23:54;5.97;;;3.70;;
37241;SDS011;23135;51.078;12.108;2022-10-22T02:26:34;8.35;;;3.63;;
37241;SDS011;23135;51.078;12.108;2022-10-22T02:31:37;13.70;;;3.78;;
37241;SDS011;23135;51.078;12.108;2022-10-22T02:34:07;9.65;;;4.30;;
37241;SDS011;23135;51.078;12.108;2022-10-22T02:36:36;8.45;;;4.40;;
37241;SDS011;23135;51.078;12.108;2022-10-22T02:39:03;12.27;;;3.33;;
37241;SDS011;23135;51.078;12.108;2022-10-22T02:41:30;12.55;;;6.10;;
37241;SDS011;23135;51.078;12.108;2022-10-22T02:43:56;11.43;;;4.55;;
37241;SDS011;23135;51.078;12.108;2022-10-22T02:46:22;8.88;;;3.70;;
37241;SDS011;23135;51.078;12.108;2022-10-22T02:48:49;9.88;;;3.97;;
37241;SDS011;23135;51.078;12.108;2022-10-22T02:51:15;6.55;;;3.85;;
37241;SDS011;23135;51.078;12.108;2022-10-22T02:53:40;11.90;;;4.63;;
37241;SDS011;23135;51.078;12.108;2022-10-22T02:56:06;9.68;;;4.07;;
37241;SDS011;23135;51.078;12.108;2022-10-22T02:58:32;7.82;;;4.03;;
37241;SDS011;23135;51.078;12.108;2022-10-22T03:00:58;8.90;;;4.20;;
37241;SDS011;23135;51.078;12.108;2022-10-22T03:03:23;10.85;;;3.97;;
37241;SDS011;23135;51.078;12.108;2022-10-22T03:05:49;11.05;;;4.10;;
37241;SDS011;23135;51.078;12.108;2022-10-22T03:08:15;11.07;;;4.47;;
37241;SDS011;23135;51.078;12.108;2022-10-22T03:10:41;5.53;;;3.10;;
37241;SDS011;23135;51.078;12.108;2022-10-22T03:13:07;6.22;;;3.97;;
37241;SDS011;23135;51.078;12.108;2022-10-22T03:15:33;7.65;;;3.95;;
37241;SDS011;23135;51.078;12.108;2022-10-22T03:17:59;8.43;;;3.95;;
37241;SDS011;23135;51.078;12.108;2022-10-22T03:20:24;11.13;;;3.75;;
37241;SDS011;23135;51.078;12.108;2022-10-22T03:22:50;14.13;;;3.25;;
37241;SDS011;23135;51.078;12.108;2022-10-22T03:25:17;7.57;;;3.67;;
37241;SDS011;23135;51.078;12.108;2022-10-22T03:27:46;7.70;;;3.55;;
37241;SDS011;23135;51.078;12.108;2022-10-22T03:30:13;9.65;;;3.92;;
37241;SDS011;23135;51.078;12.108;2022-10-22T03:32:39;11.18;;;3.70;;
37241;SDS011;23135;51.078;12.108;2022-10-22T03:35:05;8.38;;;4.00;;
37241;SDS011;23135;51.078;12.108;2022-10-22T03:37:31;8.40;;;3.28;;
37241;SDS011;23135;51.078;12.108;2022-10-22T03:39:57;6.30;;;3.47;;
37241;SDS011;23135;51.078;12.108;2022-10-22T03:42:23;9.50;;;4.47;;
37241;SDS011;23135;51.078;12.108;2022-10-22T03:44:49;5.88;;;3.80;;
37241;SDS011;23135;51.078;12.108;2022-10-22T03:47:15;13.07;;;4.78;;
37241;SDS011;23135;51.078;12.108;2022-10-22T03:49:41;8.70;;;3.85;;
37241;SDS011;23135;51.078;12.108;2022-10-22T03:52:07;6.60;;;4.25;;
37241;SDS011;23135;51.078;12.108;2022-10-22T03:54:35;7.40;;;3.97;;
37241;SDS011;23135;51.078;12.108;2022-10-22T03:57:02;7.07;;;3.65;;
37241;SDS011;23135;51.078;12.108;2022-10-22T03:59:28;9.70;;;4.35;;
37241;SDS011;23135;51.078;12.108;2022-10-22T04:01:57;8.88;;;4.15;;
37241;SDS011;23135;51.078;12.108;2022-10-22T04:04:23;4.90;;;4.03;;
37241;SDS011;23135;51.078;12.108;2022-10-22T04:06:49;17.48;;;5.78;;
37241;SDS011;23135;51.078;12.108;2022-10-22T04:09:14;6.32;;;4.15;;
37241;SDS011;23135;51.078;12.108;2022-10-22T04:11:40;6.50;;;3.83;;
37241;SDS011;23135;51.078;12.108;2022-10-22T04:14:05;6.05;;;4.22;;
37241;SDS011;23135;51.078;12.108;2022-10-22T04:16:31;7.55;;;3.40;;
37241;SDS011;23135;51.078;12.108;2022-10-22T04:18:57;9.38;;;3.60;;
37241;SDS011;23135;51.078;12.108;2022-10-22T04:21:23;3.17;;;2.88;;
37241;SDS011;23135;51.078;12.108;2022-10-22T04:23:50;6.88;;;3.25;;
37241;SDS011;23135;51.078;12.108;2022-10-22T04:26:17;9.20;;;3.53;;
37241;SDS011;23135;51.078;12.108;2022-10-22T04:28:44;9.45;;;3.72;;
37241;SDS011;23135;51.078;12.108;2022-10-22T04:31:14;6.90;;;3.40;;
37241;SDS011;23135;51.078;12.108;2022-10-22T04:33:41;10.48;;;3.97;;
37241;SDS011;23135;51.078;12.108;2022-10-22T04:36:08;13.80;;;4.88;;
37241;SDS011;23135;51.078;12.108;2022-10-22T04:38:36;8.93;;;4.85;;
37241;SDS011;23135;51.078;12.108;2022-10-22T04:41:18;7.35;;;3.92;;
37241;SDS011;23135;51.078;12.108;2022-10-22T04:43:46;7.03;;;3.92;;
37241;SDS011;23135;51.078;12.108;2022-10-22T04:46:12;8.35;;;4.43;;
37241;SDS011;23135;51.078;12.108;2022-10-22T04:48:40;8.95;;;4.28;;
37241;SDS011;23135;51.078;12.108;2022-10-22T04:51:07;10.25;;;4.72;;
37241;SDS011;23135;51.078;12.108;2022-10-22T04:53:34;5.80;;;4.20;;
37241;SDS011;23135;51.078;12.108;2022-10-22T04:56:14;6.05;;;4.10;;
37241;SDS011;23135;51.078;12.108;2022-10-22T04:58:43;7.70;;;4.25;;
37241;SDS011;23135;51.078;12.108;2022-10-22T05:01:10;9.75;;;4.60;;
37241;SDS011;23135;51.078;12.108;2022-10-22T05:03:40;5.95;;;4.15;;
37241;SDS011;23135;51.078;12.108;2022-10-22T05:06:07;7.22;;;4.65;;
37241;SDS011;23135;51.078;12.108;2022-10-22T05:08:33;11.52;;;4.60;;
37241;SDS011;23135;51.078;12.108;2022-10-22T05:10:59;10.63;;;4.55;;
37241;SDS011;23135;51.078;12.108;2022-10-22T05:13:24;9.77;;;4.88;;
37241;SDS011;23135;51.078;12.108;2022-10-22T05:15:50;8.35;;;4.35;;
37241;SDS011;23135;51.078;12.108;2022-10-22T05:18:16;12.05;;;5.30;;
37241;SDS011;23135;51.078;12.108;2022-10-22T05:20:41;13.80;;;5.68;;
37241;SDS011;23135;51.078;12.108;2022-10-22T05:23:07;10.98;;;5.65;;
37241;SDS011;23135;51.078;12.108;2022-10-22T05:25:39;8.77;;;5.50;;
37241;SDS011;23135;51.078;12.108;2022-10-22T05:28:05;5.65;;;4.57;;
37241;SDS011;23135;51.078;12.108;2022-10-22T05:30:30;12.35;;;4.88;;
37241;SDS011;23135;51.078;12.108;2022-10-22T05:32:56;11.07;;;5.70;;
37241;SDS011;23135;51.078;12.108;2022-10-22T05:35:21;11.25;;;4.25;;
37241;SDS011;23135;51.078;12.108;2022-10-22T05:37:47;6.25;;;4.68;;
37241;SDS011;23135;51.078;12.108;2022-10-22T05:40:12;7.60;;;4.03;;
37241;SDS011;23135;51.078;12.108;2022-10-22T05:42:38;7.13;;;4.05;;
37241;SDS011;23135;51.078;12.108;2022-10-22T05:45:04;8.23;;;4.22;;
37241;SDS011;23135;51.078;12.108;2022-10-22T05:47:30;5.22;;;3.63;;
37241;SDS011;23135;51.078;12.108;2022-10-22T05:49:55;8.35;;;4.35;;
37241;SDS011;23135;51.078;12.108;2022-10-22T05:52:21;8.23;;;4.38;;
37241;SDS011;23135;51.078;12.108;2022-10-22T05:54:47;9.15;;;5.20;;
37241;SDS011;23135;51.078;12.108;2022-10-22T05:57:13;7.25;;;4.22;;
37241;SDS011;23135;51.078;12.108;2022-10-22T05:59:39;7.25;;;4.47;;
37241;SDS011;23135;51.078;12.108;2022-10-22T06:02:04;5.60;;;3.97;;
37241;SDS011;23135;51.078;12.108;2022-10-22T06:04:30;7.07;;;4.25;;
37241;SDS011;23135;51.078;12.108;2022-10-22T06:06:56;6.68;;;4.53;;
37241;SDS011;23135;51.078;12.108;2022-10-22T06:09:28;6.50;;;5.10;;
37241;SDS011;23135;51.078;12.108;2022-10-22T06:11:56;8.27;;;4.32;;
37241;SDS011;23135;51.078;12.108;2022-10-22T06:14:23;11.13;;;5.70;;
37241;SDS011;23135;51.078;12.108;2022-10-22T06:16:49;7.57;;;4.03;;
37241;SDS011;23135;51.078;12.108;2022-10-22T06:19:16;9.20;;;5.10;;
37241;SDS011;23135;51.078;12.108;2022-10-22T06:21:43;9.02;;;4.80;;
37241;SDS011;23135;51.078;12.108;2022-10-22T06:24:09;14.00;;;5.40;;
37241;SDS011;23135;51.078;12.108;2022-10-22T06:26:35;8.77;;;5.63;;
37241;SDS011;23135;51.078;12.108;2022-10-22T06:29:01;12.23;;;5.88;;
37241;SDS011;23135;51.078;12.108;2022-10-22T06:31:27;10.07;;;5.22;;
37241;SDS011;23135;51.078;12.108;2022-10-22T06:33:55;8.07;;;3.75;;
37241;SDS011;23135;51.078;12.108;2022-10-22T06:36:21;6.57;;;3.22;;
37241;SDS011;23135;51.078;12.108;2022-10-22T06:38:50;5.63;;;3.00;;
37241;SDS011;23135;51.078;12.108;2022-10-22T06:41:16;10.32;;;2.72;;
37241;SDS011;23135;51.078;12.108;2022-10-22T06:43:42;5.70;;;1.30;;
37241;SDS011;23135;51.078;12.108;2022-10-22T06:46:11;7.05;;;1.63;;
37241;SDS011;23135;51.078;12.108;2022-10-22T06:48:38;7.47;;;1.52;;
37241;SDS011;23135;51.078;12.108;2022-10-22T06:51:05;0.80;;;0.32;;
37241;SDS011;23135;51.078;12.108;2022-10-22T06:53:33;7.82;;;0.20;;
37241;SDS011;23135;51.078;12.108;2022-10-22T06:56:09;1.33;;;0.10;;
37241;SDS011;23135;51.078;12.108;2022-10-22T06:58:37;1.92;;;0.03;;
37241;SDS011;23135;51.078;12.108;2022-10-22T07:01:04;1.88;;;0.10;;
37241;SDS011;23135;51.078;12.108;2022-10-22T07:03:34;2.00;;;0.00;;
37241;SDS011;23135;51.078;12.108;2022-10-22T07:06:00;0.28;;;0.10;;
37241;SDS011;23135;51.078;12.108;2022-10-22T07:08:26;0.88;;;0.08;;
37241;SDS011;23135;51.078;12.108;2022-10-22T07:10:52;0.25;;;0.00;;
37241;SDS011;23135;51.078;12.108;2022-10-22T07:13:18;1.88;;;0.00;;
37241;SDS011;23135;51.078;12.108;2022-10-22T07:15:44;0.47;;;0.00;;
37241;SDS011;23135;51.078;12.108;2022-10-22T07:18:10;1.15;;;0.05;;
37241;SDS011;23135;51.078;12.108;2022-10-22T07:20:35;0.45;;;0.00;;
37241;SDS011;23135;51.078;12.108;2022-10-22T07:23:01;0.38;;;0.10;;
37241;SDS011;23135;51.078;12.108;2022-10-22T07:25:26;0.35;;;0.00;;
37241;SDS011;23135;51.078;12.108;2022-10-22T07:27:52;2.92;;;0.20;;
37241;SDS011;23135;51.078;12.108;2022-10-22T07:30:17;0.50;;;0.03;;
37241;SDS011;23135;51.078;12.108;2022-10-22T07:32:43;4.18;;;0.00;;
37241;SDS011;23135;51.078;12.108;2022-10-22T07:35:09;1.38;;;0.00;;
37241;SDS011;23135;51.078;12.108;2022-10-22T07:37:34;1.55;;;0.05;;
37241;SDS011;23135;51.078;12.108;2022-10-22T07:40:00;0.90;;;0.10;;
37241;SDS011;23135;51.078;12.108;2022-10-22T07:42:26;4.85;;;0.75;;
37241;SDS011;23135;51.078;12.108;2022-10-22T07:44:53;0.28;;;0.10;;
37241;SDS011;23135;51.078;12.108;2022-10-22T07:47:18;3.38;;;0.22;;
37241;SDS011;23135;51.078;12.108;2022-10-22T07:49:44;2.15;;;0.80;;
37241;SDS011;23135;51.078;12.108;2022-10-22T07:52:09;2.38;;;0.00;;
37241;SDS011;23135;51.078;12.108;2022-10-22T07:54:35;1.33;;;0.57;;
37241;SDS011;23135;51.078;12.108;2022-10-22T07:57:01;1.23;;;0.38;;
37241;SDS011;23135;51.078;12.108;2022-10-22T07:59:26;4.60;;;0.15;;
37241;SDS011;23135;51.078;12.108;2022-10-22T08:01:52;0.63;;;0.00;;
37241;SDS011;23135;51.078;12.108;2022-10-22T08:04:17;2.67;;;0.93;;
37241;SDS011;23135;51.078;12.108;2022-10-22T08:06:43;1.48;;;0.10;;
37241;SDS011;23135;51.078;12.108;2022-10-22T08:09:08;1.95;;;0.30;;
37241;SDS011;23135;51.078;12.108;2022-10-22T08:11:34;0.45;;;0.00;;
37241;SDS011;23135;51.078;12.108;2022-10-22T08:14:00;2.33;;;0.30;;
37241;SDS011;23135;51.078;12.108;2022-10-22T08:16:25;4.57;;;0.10;;
37241;SDS011;23135;51.078;12.108;2022-10-22T08:18:51;2.63;;;0.90;;
37241;SDS011;23135;51.078;12.108;2022-10-22T08:21:16;0.32;;;0.10;;
37241;SDS011;23135;51.078;12.108;2022-10-22T08:23:42;0.88;;;0.10;;
37241;SDS011;23135;51.078;12.108;2022-10-22T08:26:08;1.23;;;0.47;;
37241;SDS011;23135;51.078;12.108;2022-10-22T08:28:34;4.18;;;0.38;;
37241;SDS011;23135;51.078;12.108;2022-10-22T08:31:04;5.93;;;0.40;;
37241;SDS011;23135;51.078;12.108;2022-10-22T08:33:31;2.50;;;0.10;;
37241;SDS011;23135;51.078;12.108;2022-10-22T08:35:57;0.90;;;0.50;;
37241;SDS011;23135;51.078;12.108;2022-10-22T08:38:22;10.43;;;3.55;;
37241;SDS011;23135;51.078;12.108;2022-10-22T08:40:50;12.35;;;6.20;;
37241;SDS011;23135;51.078;12.108;2022-10-22T08:43:36;16.90;;;8.77;;
37241;SDS011;23135;51.078;12.108;2022-10-22T08:46:17;15.77;;;6.68;;
37241;SDS011;23135;51.078;12.108;2022-10-22T08:49:21;7.57;;;3.40;;
37241;SDS011;23135;51.078;12.108;2022-10-22T08:51:49;5.43;;;0.60;;
37241;SDS011;23135;51.078;12.108;2022-10-22T09:08:17;0.22;;;0.00;;
37241;SDS011;23135;51.078;12.108;2022-10-22T09:10:50;2.85;;;0.40;;
37241;SDS011;23135;51.078;12.108;2022-10-22T09:13:21;3.28;;;0.40;;
37241;SDS011;23135;51.078;12.108;2022-10-22T09:15:49;3.30;;;0.38;;
37241;SDS011;23135;51.078;12.108;2022-10-22T09:18:29;0.77;;;0.50;;
37241;SDS011;23135;51.078;12.108;2022-10-22T09:26:15;1.23;;;0.40;;
37241;SDS011;23135;51.078;12.108;2022-10-22T09:28:41;1.98;;;0.95;;
37241;SDS011;23135;51.078;12.108;2022-10-22T09:31:11;2.30;;;0.82;;
37241;SDS011;23135;51.078;12.108;2022-10-22T09:33:39;4.63;;;1.00;;
37241;SDS011;23135;51.078;12.108;2022-10-22T09:36:05;0.80;;;0.10;;
37241;SDS011;23135;51.078;12.108;2022-10-22T09:38:39;0.60;;;0.10;;
37241;SDS011;23135;51.078;12.108;2022-10-22T09:41:09;0.63;;;0.00;;
37241;SDS011;23135;51.078;12.108;2022-10-22T09:43:35;2.53;;;0.05;;
37241;SDS011;23135;51.078;12.108;2022-10-22T09:46:05;1.55;;;0.00;;
37241;SDS011;23135;51.078;12.108;2022-10-22T09:48:39;1.75;;;0.15;;
37241;SDS011;23135;51.078;12.108;2022-10-22T09:53:47;0.20;;;0.20;;
37241;SDS011;23135;51.078;12.108;2022-10-22T09:58:57;0.30;;;0.00;;
37241;SDS011;23135;51.078;12.108;2022-10-22T10:01:24;0.82;;;0.00;;
37241;SDS011;23135;51.078;12.108;2022-10-22T10:03:51;0.52;;;0.10;;
37241;SDS011;23135;51.078;12.108;2022-10-22T10:06:20;0.20;;;0.00;;
37241;SDS011;23135;51.078;12.108;2022-10-22T10:08:47;2.00;;;0.13;;
37241;SDS011;23135;51.078;12.108;2022-10-22T10:16:42;1.42;;;1.33;;
37241;SDS011;23135;51.078;12.108;2022-10-22T10:27:55;1.55;;;0.43;;
37241;SDS011;23135;51.078;12.108;2022-10-22T10:30:43;2.00;;;0.17;;
37241;SDS011;23135;51.078;12.108;2022-10-22T10:33:43;0.00;;;0.00;;
37241;SDS011;23135;51.078;12.108;2022-10-22T10:36:24;0.10;;;0.00;;
37241;SDS011;23135;51.078;12.108;2022-10-22T10:50:03;1.63;;;0.00;;
37241;SDS011;23135;51.078;12.108;2022-10-22T10:52:47;2.08;;;0.43;;
37241;SDS011;23135;51.078;12.108;2022-10-22T10:55:40;0.00;;;0.00;;
37241;SDS011;23135;51.078;12.108;2022-10-22T10:58:29;1.55;;;0.00;;
37241;SDS011;23135;51.078;12.108;2022-10-22T11:01:17;0.05;;;0.00;;
37241;SDS011;23135;51.078;12.108;2022-10-22T11:06:47;0.00;;;0.00;;
37241;SDS011;23135;51.078;12.108;2022-10-22T11:11:44;2.28;;;0.00;;
37241;SDS011;23135;51.078;12.108;2022-10-22T11:17:05;1.23;;;0.00;;
37241;SDS011;23135;51.078;12.108;2022-10-22T11:22:25;0.10;;;0.00;;
37241;SDS011;23135;51.078;12.108;2022-10-22T11:27:24;2.28;;;0.00;;
37241;SDS011;23135;51.078;12.108;2022-10-22T11:29:53;0.00;;;0.00;;
37241;SDS011;23135;51.078;12.108;2022-10-22T11:32:26;0.00;;;0.00;;
37241;SDS011;23135;51.078;12.108;2022-10-22T11:34:53;2.45;;;0.00;;
37241;SDS011;23135;51.078;12.108;2022-10-22T11:37:23;0.93;;;0.35;;
37241;SDS011;23135;51.078;12.108;2022-10-22T11:39:53;2.05;;;0.00;;
37241;SDS011;23135;51.078;12.108;2022-10-22T11:42:23;0.43;;;0.00;;
37241;SDS011;23135;51.078;12.108;2022-10-22T11:47:25;0.57;;;0.00;;
37241;SDS011;23135;51.078;12.108;2022-10-22T11:49:58;0.00;;;0.00;;
37241;SDS011;23135;51.078;12.108;2022-10-22T11:52:52;0.13;;;0.00;;
37241;SDS011;23135;51.078;12.108;2022-10-22T11:58:48;2.20;;;0.00;;
37241;SDS011;23135;51.078;12.108;2022-10-22T12:13:52;0.82;;;0.00;;
37241;SDS011;23135;51.078;12.108;2022-10-22T12:16:44;0.00;;;0.00;;
37241;SDS011;23135;51.078;12.108;2022-10-22T12:21:47;0.73;;;0.00;;
37241;SDS011;23135;51.078;12.108;2022-10-22T12:24:28;0.77;;;0.00;;
37241;SDS011;23135;51.078;12.108;2022-10-22T12:26:56;0.00;;;0.00;;
37241;SDS011;23135;51.078;12.108;2022-10-22T12:29:21;2.08;;;0.00;;
37241;SDS011;23135;51.078;12.108;2022-10-22T12:31:49;0.00;;;0.00;;
37241;SDS011;23135;51.078;12.108;2022-10-22T12:34:16;0.00;;;0.00;;
37241;SDS011;23135;51.078;12.108;2022-10-22T12:36:46;2.58;;;0.55;;
37241;SDS011;23135;51.078;12.108;2022-10-22T12:39:18;0.40;;;0.00;;
37241;SDS011;23135;51.078;12.108;2022-10-22T12:41:45;0.10;;;0.00;;
37241;SDS011;23135;51.078;12.108;2022-10-22T12:44:13;0.70;;;0.00;;
37241;SDS011;23135;51.078;12.108;2022-10-22T12:46:40;2.47;;;0.00;;
37241;SDS011;23135;51.078;12.108;2022-10-22T12:49:16;3.60;;;0.00;;
37241;SDS011;23135;51.078;12.108;2022-10-22T12:51:45;0.00;;;0.00;;
37241;SDS011;23135;51.078;12.108;2022-10-22T12:54:21;0.00;;;0.00;;
37241;SDS011;23135;51.078;12.108;2022-10-22T12:56:52;0.03;;;0.00;;
37241;SDS011;23135;51.078;12.108;2022-10-22T12:59:32;1.67;;;0.00;;
37241;SDS011;23135;51.078;12.108;2022-10-22T13:02:00;2.28;;;0.80;;
37241;SDS011;23135;51.078;12.108;2022-10-22T13:04:32;0.05;;;0.00;;
37241;SDS011;23135;51.078;12.108;2022-10-22T13:07:15;2.20;;;0.00;;
37241;SDS011;23135;51.078;12.108;2022-10-22T13:09:47;0.47;;;0.00;;
37241;SDS011;23135;51.078;12.108;2022-10-22T13:12:34;0.20;;;0.00;;
37241;SDS011;23135;51.078;12.108;2022-10-22T13:17:46;0.00;;;0.00;;
37241;SDS011;23135;51.078;12.108;2022-10-22T13:20:20;0.47;;;0.00;;
37241;SDS011;23135;51.078;12.108;2022-10-22T13:25:27;1.30;;;0.00;;
37241;SDS011;23135;51.078;12.108;2022-10-22T13:30:53;0.68;;;0.00;;
37241;SDS011;23135;51.078;12.108;2022-10-22T13:36:00;0.50;;;0.00;;
37241;SDS011;23135;51.078;12.108;2022-10-22T13:38:26;1.20;;;0.00;;
37241;SDS011;23135;51.078;12.108;2022-10-22T13:40:53;0.00;;;0.00;;
37241;SDS011;23135;51.078;12.108;2022-10-22T13:43:19;0.17;;;0.00;;
37241;SDS011;23135;51.078;12.108;2022-10-22T13:45:45;3.83;;;0.10;;
37241;SDS011;23135;51.078;12.108;2022-10-22T13:48:13;0.57;;;0.00;;
37241;SDS011;23135;51.078;12.108;2022-10-22T13:50:40;1.13;;;0.03;;
37241;SDS011;23135;51.078;12.108;2022-10-22T13:53:25;0.75;;;0.10;;
37241;SDS011;23135;51.078;12.108;2022-10-22T13:55:53;5.35;;;0.00;;
37241;SDS011;23135;51.078;12.108;2022-10-22T13:58:22;0.50;;;0.00;;
37241;SDS011;23135;51.078;12.108;2022-10-22T14:00:56;2.72;;;0.65;;
37241;SDS011;23135;51.078;12.108;2022-10-22T14:03:30;1.67;;;0.00;;
37241;SDS011;23135;51.078;12.108;2022-10-22T14:05:58;0.85;;;0.00;;
37241;SDS011;23135;51.078;12.108;2022-10-22T14:08:24;2.05;;;0.25;;
37241;SDS011;23135;51.078;12.108;2022-10-22T14:10:51;0.30;;;0.10;;
37241;SDS011;23135;51.078;12.108;2022-10-22T14:13:17;1.75;;;0.00;;
37241;SDS011;23135;51.078;12.108;2022-10-22T14:15:44;2.95;;;0.00;;
37241;SDS011;23135;51.078;12.108;2022-10-22T14:18:14;2.05;;;0.10;;
37241;SDS011;23135;51.078;12.108;2022-10-22T14:20:48;2.10;;;0.20;;
37241;SDS011;23135;51.078;12.108;2022-10-22T14:23:21;2.65;;;0.00;;
37241;SDS011;23135;51.078;12.108;2022-10-22T14:28:17;0.17;;;0.00;;
37241;SDS011;23135;51.078;12.108;2022-10-22T14:30:43;2.42;;;0.00;;
37241;SDS011;23135;51.078;12.108;2022-10-22T14:33:14;5.50;;;0.00;;
37241;SDS011;23135;51.078;12.108;2022-10-22T14:35:46;1.58;;;0.00;;
37241;SDS011;23135;51.078;12.108;2022-10-22T14:38:12;0.95;;;0.10;;
37241;SDS011;23135;51.078;12.108;2022-10-22T14:40:38;5.78;;;0.00;;
37241;SDS011;23135;51.078;12.108;2022-10-22T14:43:09;2.38;;;0.10;;
37241;SDS011;23135;51.078;12.108;2022-10-22T14:45:44;2.67;;;0.10;;
37241;SDS011;23135;51.078;12.108;2022-10-22T14:48:09;1.23;;;0.05;;
37241;SDS011;23135;51.078;12.108;2022-10-22T14:50:35;0.30;;;0.00;;
37241;SDS011;23135;51.078;12.108;2022-10-22T14:53:00;3.63;;;0.00;;
37241;SDS011;23135;51.078;12.108;2022-10-22T14:55:26;3.67;;;0.00;;
37241;SDS011;23135;51.078;12.108;2022-10-22T14:57:53;2.42;;;0.20;;
37241;SDS011;23135;51.078;12.108;2022-10-22T15:00:19;1.13;;;0.10;;
37241;SDS011;23135;51.078;12.108;2022-10-22T15:02:45;2.60;;;0.10;;
37241;SDS011;23135;51.078;12.108;2022-10-22T15:05:12;0.40;;;0.10;;
37241;SDS011;23135;51.078;12.108;2022-10-22T15:07:38;3.28;;;0.30;;
37241;SDS011;23135;51.078;12.108;2022-10-22T15:10:04;0.13;;;0.00;;
37241;SDS011;23135;51.078;12.108;2022-10-22T15:12:31;3.55;;;0.20;;
37241;SDS011;23135;51.078;12.108;2022-10-22T15:14:57;4.75;;;1.10;;
37241;SDS011;23135;51.078;12.108;2022-10-22T15:17:22;2.53;;;0.30;;
37241;SDS011;23135;51.078;12.108;2022-10-22T15:19:48;1.08;;;0.03;;
37241;SDS011;23135;51.078;12.108;2022-10-22T15:22:14;3.05;;;0.20;;
37241;SDS011;23135;51.078;12.108;2022-10-22T15:24:40;2.63;;;0.25;;
37241;SDS011;23135;51.078;12.108;2022-10-22T15:27:09;1.45;;;0.10;;
37241;SDS011;23135;51.078;12.108;2022-10-22T15:29:37;4.13;;;0.22;;
37241;SDS011;23135;51.078;12.108;2022-10-22T15:32:04;4.80;;;0.60;;
37241;SDS011;23135;51.078;12.108;2022-10-22T15:34:31;1.67;;;0.13;;
37241;SDS011;23135;51.078;12.108;2022-10-22T15:36:59;9.25;;;0.10;;
37241;SDS011;23135;51.078;12.108;2022-10-22T15:39:26;1.10;;;0.10;;
37241;SDS011;23135;51.078;12.108;2022-10-22T15:41:53;3.70;;;0.10;;
37241;SDS011;23135;51.078;12.108;2022-10-22T15:44:20;5.47;;;0.50;;
37241;SDS011;23135;51.078;12.108;2022-10-22T15:46:47;0.63;;;0.10;;
37241;SDS011;23135;51.078;12.108;2022-10-22T15:49:14;4.53;;;0.20;;
37241;SDS011;23135;51.078;12.108;2022-10-22T15:51:40;3.15;;;0.20;;
37241;SDS011;23135;51.078;12.108;2022-10-22T15:54:06;3.08;;;0.52;;
37241;SDS011;23135;51.078;12.108;2022-10-22T15:56:35;2.10;;;0.17;;
37241;SDS011;23135;51.078;12.108;2022-10-22T15:59:01;6.00;;;1.77;;
37241;SDS011;23135;51.078;12.108;2022-10-22T16:01:31;9.80;;;5.00;;
37241;SDS011;23135;51.078;12.108;2022-10-22T16:03:58;6.03;;;1.05;;
37241;SDS011;23135;51.078;12.108;2022-10-22T16:06:25;12.20;;;1.63;;
37241;SDS011;23135;51.078;12.108;2022-10-22T16:08:53;6.05;;;1.17;;
37241;SDS011;23135;51.078;12.108;2022-10-22T16:11:21;3.15;;;1.02;;
37241;SDS011;23135;51.078;12.108;2022-10-22T16:13:46;3.72;;;0.75;;
37241;SDS011;23135;51.078;12.108;2022-10-22T16:16:12;4.38;;;2.00;;
37241;SDS011;23135;51.078;12.108;2022-10-22T16:18:38;5.43;;;1.33;;
37241;SDS011;23135;51.078;12.108;2022-10-22T16:21:03;3.15;;;1.00;;
37241;SDS011;23135;51.078;12.108;2022-10-22T16:23:29;2.40;;;0.40;;
37241;SDS011;23135;51.078;12.108;2022-10-22T16:25:55;3.55;;;0.20;;
37241;SDS011;23135;51.078;12.108;2022-10-22T16:28:20;2.22;;;1.45;;
37241;SDS011;23135;51.078;12.108;2022-10-22T16:30:46;3.03;;;0.20;;
37241;SDS011;23135;51.078;12.108;2022-10-22T16:33:11;4.07;;;0.25;;
37241;SDS011;23135;51.078;12.108;2022-10-22T16:35:40;4.00;;;0.20;;
37241;SDS011;23135;51.078;12.108;2022-10-22T16:38:07;0.43;;;0.10;;
37241;SDS011;23135;51.078;12.108;2022-10-22T16:40:34;4.53;;;0.40;;
37241;SDS011;23135;51.078;12.108;2022-10-22T16:43:00;2.05;;;0.50;;
37241;SDS011;23135;51.078;12.108;2022-10-22T16:45:25;3.55;;;0.35;;
37241;SDS011;23135;51.078;12.108;2022-10-22T16:47:51;7.35;;;0.82;;